createdAt,value
2022-11-30T17:13:59.637Z,102678.50
2022-11-30T17:15:03.462Z,102686.84
2022-11-30T17:16:06.151Z,102683.59
2022-11-30T17:17:10.620Z,102689.53
2022-11-30T17:18:12.732Z,102687.94
2022-11-30T17:19:15.351Z,102685.63
2022-11-30T17:20:20.626Z,102688.50
2022-11-30T17:21:32.986Z,102678.22
2022-11-30T17:22:38.055Z,102691.19
2022-11-30T17:23:41.892Z,102681.94
2022-11-30T17:24:44.082Z,102679.09
2022-11-30T17:25:47.561Z,102674.97
2022-11-30T17:26:51.079Z,102679.75
2022-11-30T17:27:53.643Z,102683.28
2022-11-30T17:28:56.145Z,102685.56
2022-11-30T17:29:58.613Z,102688.66
2022-11-30T17:31:01.816Z,102686.34
2022-11-30T17:32:07.054Z,102688.41
2022-11-30T17:33:09.470Z,102683.66
2022-11-30T17:34:12.028Z,102686.34
2022-11-30T17:35:16.329Z,102683.53
2022-11-30T17:36:21.268Z,102687.44
2022-11-30T17:37:23.957Z,102680.81
2022-11-30T17:38:28.234Z,102677.50
2022-11-30T17:39:31.074Z,102684.09
2022-11-30T17:40:33.754Z,102682.50
2022-11-30T17:41:38.419Z,102680.41
2022-11-30T17:42:42.911Z,102673.56
2022-11-30T17:43:45.532Z,102676.84
2022-11-30T17:44:48.323Z,102678.34
2022-11-30T17:45:51.029Z,102676.31
2022-11-30T17:46:55.799Z,102687.59
2022-11-30T17:47:57.884Z,102680.81
2022-11-30T17:49:01.213Z,102687.84
2022-11-30T17:50:03.782Z,102684.16
2022-11-30T17:51:06.513Z,102678.28
2022-11-30T17:52:09.357Z,102674.44
2022-11-30T17:53:16.784Z,102682.72
2022-11-30T17:54:20.436Z,102672.19
2022-11-30T17:55:22.689Z,102679.88
2022-11-30T17:56:24.953Z,102677.75
2022-11-30T17:57:27.627Z,102683.34
2022-11-30T17:58:36.038Z,102677.13
2022-11-30T17:59:41.473Z,102679.38
2022-11-30T18:00:45.137Z,102684.53
2022-11-30T18:01:54.377Z,102685.81
2022-11-30T18:03:01.074Z,102684.59
2022-11-30T18:04:03.882Z,102682.50
2022-11-30T18:05:08.119Z,102679.59
2022-11-30T18:06:20.127Z,102684.38
2022-11-30T18:08:19.187Z,102683.72
2022-11-30T18:09:42.489Z,102680.59
2022-11-30T18:10:50.115Z,102679.53
2022-11-30T18:12:02.646Z,102679.97
2022-11-30T18:13:13.884Z,102682.06
2022-11-30T18:14:17.183Z,102682.66
2022-11-30T18:15:43.919Z,102687.00
2022-11-30T18:17:03.080Z,102686.41
2022-11-30T18:18:28.159Z,102687.84
2022-11-30T18:21:41.566Z,102686.16
2022-11-30T18:23:16.427Z,102691.09
2022-11-30T18:27:48.109Z,102693.91
2022-11-30T18:29:30.930Z,102689.19
2022-11-30T18:39:32.957Z,102694.19
2022-11-30T18:41:14.811Z,102690.19
2022-11-30T18:43:53.541Z,102701.94
2022-11-30T18:45:36.667Z,102698.47
2022-11-30T18:47:24.228Z,102696.41
2022-11-30T18:48:44.181Z,102707.53
2022-11-30T18:49:52.092Z,102694.31
2022-11-30T18:51:21.774Z,102701.00
2022-11-30T18:52:23.997Z,102707.53
2022-11-30T18:53:27.075Z,102707.91
2022-11-30T18:54:33.487Z,102700.06
2022-11-30T18:55:40.769Z,102705.06
2022-11-30T18:56:44.702Z,102702.59
2022-11-30T18:57:58.747Z,102705.72
2022-11-30T18:59:14.939Z,102706.09
2022-11-30T19:00:18.774Z,102707.16
2022-11-30T19:01:21.967Z,102710.03
2022-11-30T19:02:25.948Z,102707.09
2022-11-30T19:03:29.506Z,102704.22
2022-11-30T19:04:43.671Z,102706.66
2022-11-30T19:05:47.889Z,102712.81
2022-11-30T19:06:55.312Z,102709.13
2022-11-30T19:08:00.130Z,102704.63
2022-11-30T19:09:18.077Z,102712.91
2022-11-30T19:10:23.550Z,102704.19
2022-11-30T19:11:39.386Z,102702.09
2022-11-30T19:12:48.084Z,102699.88
2022-11-30T19:13:58.243Z,102707.53
2022-11-30T19:15:19.973Z,102703.41
2022-11-30T19:16:49.252Z,102713.28
2022-11-30T19:18:11.410Z,102711.25
2022-11-30T19:20:53.784Z,102710.72
2022-11-30T19:22:02.702Z,102714.06
2022-11-30T19:23:12.058Z,102707.09
2022-11-30T19:24:29.354Z,102716.50
2022-11-30T19:25:40.623Z,102718.19
2022-11-30T19:26:53.788Z,102717.19
2022-11-30T19:28:03.653Z,102719.63
2022-11-30T19:29:45.759Z,102716.53
2022-11-30T19:31:20.275Z,102719.06
2022-11-30T19:32:31.874Z,102716.63
2022-11-30T19:35:04.778Z,102709.59
2022-11-30T19:36:19.931Z,102720.25
2022-11-30T19:37:37.541Z,102719.72
2022-11-30T19:38:44.380Z,102719.66
2022-11-30T19:40:13.414Z,102724.25
2022-11-30T19:41:19.846Z,102722.66
2022-11-30T19:42:27.745Z,102725.72
2022-11-30T19:43:34.849Z,102728.50
2022-11-30T19:44:48.021Z,102730.59
2022-11-30T19:46:14.468Z,102726.03
2022-11-30T19:47:26.927Z,102728.00
2022-11-30T19:48:42.319Z,102726.09
2022-11-30T19:49:54.602Z,102716.59
2022-11-30T19:51:10.966Z,102722.56
2022-11-30T19:52:22.969Z,102722.44
2022-11-30T19:53:28.724Z,102728.59
2022-11-30T19:54:39.710Z,102738.34
2022-11-30T19:55:44.859Z,102731.28
2022-11-30T19:56:50.406Z,102733.31
2022-11-30T19:58:10.554Z,102733.91
2022-11-30T19:59:19.640Z,102740.28
2022-11-30T20:00:24.298Z,102741.50
2022-11-30T20:01:28.800Z,102742.03
2022-11-30T20:02:40.709Z,102748.56
2022-11-30T20:03:46.870Z,102739.47
2022-11-30T20:04:55.799Z,102739.47
2022-11-30T20:06:02.834Z,102748.38
2022-11-30T20:07:06.591Z,102741.94
2022-11-30T20:08:23.377Z,102739.47
2022-11-30T20:09:27.346Z,102740.75
2022-11-30T20:10:32.207Z,102737.47
2022-11-30T20:11:38.458Z,102742.06
2022-11-30T20:12:46.280Z,102744.47
2022-11-30T20:13:58.090Z,102740.34
2022-11-30T20:15:09.436Z,102741.00
2022-11-30T20:16:22.171Z,102746.50
2022-11-30T20:17:26.527Z,102738.69
2022-11-30T20:18:33.356Z,102749.88
2022-11-30T20:19:38.688Z,102743.03
2022-11-30T20:20:48.814Z,102745.97
2022-11-30T20:21:56.251Z,102749.44
2022-11-30T20:23:08.427Z,102745.66
2022-11-30T20:24:15.696Z,102750.06
2022-11-30T20:25:22.916Z,102744.06
2022-11-30T20:26:30.181Z,102742.41
2022-11-30T20:27:36.180Z,102744.19
2022-11-30T20:28:43.002Z,102741.63
2022-11-30T20:29:47.860Z,102751.78
2022-11-30T20:30:56.166Z,102761.50
2022-11-30T20:32:03.491Z,102753.22
2022-11-30T20:33:06.408Z,102764.25
2022-11-30T20:34:12.464Z,102758.38
2022-11-30T20:35:19.152Z,102759.28
2022-11-30T20:36:28.761Z,102756.31
2022-11-30T20:37:32.088Z,102756.00
2022-11-30T20:38:39.491Z,102757.69
2022-11-30T20:39:47.768Z,102761.31
2022-11-30T20:40:50.781Z,102756.31
2022-11-30T20:41:54.391Z,102756.09
2022-11-30T20:42:58.085Z,102756.91
2022-11-30T20:44:02.557Z,102758.47
2022-11-30T20:45:09.531Z,102754.56
2022-11-30T20:46:29.664Z,102751.19
2022-11-30T20:47:36.770Z,102756.78
2022-11-30T20:48:47.629Z,102755.78
2022-11-30T20:49:50.904Z,102749.88
2022-11-30T20:51:28.205Z,102757.81
2022-11-30T20:52:26.867Z,102753.47
2022-11-30T20:53:31.560Z,102748.69
2022-11-30T20:54:42.499Z,102750.31
2022-11-30T20:55:50.613Z,102760.59
2022-11-30T20:56:57.986Z,102751.44
2022-11-30T20:58:03.085Z,102754.81
2022-11-30T20:59:25.198Z,102747.59
2022-11-30T21:00:31.588Z,102752.72
2022-11-30T21:01:40.899Z,102750.53
2022-11-30T21:02:45.938Z,102755.25
2022-11-30T21:03:53.388Z,102753.34
2022-11-30T21:04:57.174Z,102749.25
2022-11-30T21:06:00.624Z,102752.72
2022-11-30T21:07:10.218Z,102752.31
2022-11-30T21:08:17.132Z,102757.31
2022-11-30T21:09:21.047Z,102751.94
2022-11-30T21:10:26.787Z,102752.81
2022-11-30T21:11:33.795Z,102756.09
2022-11-30T21:12:39.155Z,102761.94
2022-11-30T21:13:49.376Z,102757.34
2022-11-30T21:14:56.647Z,102745.03
2022-11-30T21:16:11.209Z,102757.69
2022-11-30T21:17:16.188Z,102756.97
2022-11-30T21:19:53.082Z,102747.41
2022-11-30T21:21:17.182Z,102759.47
2022-11-30T21:22:20.258Z,102765.88
2022-11-30T21:23:34.200Z,102763.63
2022-11-30T21:24:40.095Z,102761.78
2022-11-30T21:25:50.906Z,102763.44
2022-11-30T21:26:58.408Z,102763.31
2022-11-30T21:28:01.611Z,102765.22
2022-11-30T21:29:14.882Z,102756.78
2022-11-30T21:30:21.811Z,102762.22
2022-11-30T21:31:24.984Z,102764.19
2022-11-30T21:32:29.964Z,102760.50
2022-11-30T21:33:36.713Z,102757.53
2022-11-30T21:34:45.257Z,102760.06
2022-11-30T21:35:59.773Z,102757.03
2022-11-30T21:37:07.289Z,102758.94
2022-11-30T21:38:14.926Z,102761.38
2022-11-30T21:39:20.839Z,102758.69
2022-11-30T21:40:24.638Z,102767.56
2022-11-30T21:41:29.149Z,102765.72
2022-11-30T21:42:31.959Z,102767.69
2022-11-30T21:43:39.254Z,102758.94
2022-11-30T21:44:42.120Z,102762.84
2022-11-30T21:45:45.874Z,102768.66
2022-11-30T21:46:56.527Z,102765.22
2022-11-30T21:48:06.743Z,102763.31
2022-11-30T21:49:14.487Z,102761.13
2022-11-30T21:50:21.849Z,102762.75
2022-11-30T21:51:35.713Z,102766.09
2022-11-30T21:52:47.330Z,102768.88
2022-11-30T21:54:02.510Z,102765.56
2022-11-30T21:55:12.487Z,102761.34
2022-11-30T21:56:24.849Z,102764.56
2022-11-30T21:57:31.562Z,102760.84
2022-11-30T21:58:53.480Z,102765.56
2022-11-30T22:00:18.874Z,102765.94
2022-11-30T22:01:38.200Z,102767.44
2022-11-30T22:02:42.073Z,102763.84
2022-11-30T22:03:55.616Z,102759.16
2022-11-30T22:05:07.458Z,102767.16
2022-11-30T22:06:14.220Z,102763.22
2022-11-30T22:07:18.708Z,102775.88
2022-11-30T22:08:22.991Z,102764.88
2022-11-30T22:09:26.868Z,102765.31
2022-11-30T22:10:34.735Z,102765.91
2022-11-30T22:11:46.481Z,102768.84
2022-11-30T22:12:57.795Z,102768.75
2022-11-30T22:14:22.850Z,102763.19
2022-11-30T22:15:29.613Z,102762.63
2022-11-30T22:16:38.897Z,102767.44
2022-11-30T22:17:42.849Z,102767.72
2022-11-30T22:18:52.270Z,102760.41
2022-11-30T22:20:01.383Z,102767.53
2022-11-30T22:21:11.018Z,102759.66
2022-11-30T22:22:22.706Z,102756.44
2022-11-30T22:23:33.249Z,102762.66
2022-11-30T22:24:40.967Z,102764.97
2022-11-30T22:25:44.678Z,102760.56
2022-11-30T22:26:55.073Z,102769.59
2022-11-30T22:28:03.380Z,102767.28
2022-11-30T22:29:22.748Z,102754.31
2022-11-30T22:30:33.728Z,102761.41
2022-11-30T22:31:49.542Z,102747.44
2022-11-30T22:32:57.243Z,102754.72
2022-11-30T22:34:04.519Z,102758.97
2022-11-30T22:35:11.211Z,102754.91
2022-11-30T22:36:16.901Z,102769.34
2022-11-30T22:37:22.755Z,102758.22
2022-11-30T22:38:26.918Z,102764.16
2022-11-30T22:39:30.238Z,102766.53
2022-11-30T22:40:34.265Z,102760.81
2022-11-30T22:41:45.120Z,102758.22
2022-11-30T22:42:53.541Z,102760.72
2022-11-30T22:44:06.268Z,102765.78
2022-11-30T22:45:23.882Z,102760.41
2022-11-30T22:46:29.849Z,102765.91
2022-11-30T22:47:34.210Z,102766.94
2022-11-30T22:48:39.397Z,102762.31
2022-11-30T22:50:03.931Z,102761.72
2022-11-30T22:51:23.059Z,102759.72
2022-11-30T22:53:00.934Z,102764.91
2022-11-30T22:53:53.766Z,102769.53
2022-11-30T22:55:03.941Z,102765.19
2022-11-30T22:56:13.571Z,102764.38
2022-11-30T22:57:18.864Z,102765.38
2022-11-30T22:58:29.519Z,102766.66
2022-11-30T22:59:37.918Z,102763.53
2022-11-30T23:00:43.888Z,102773.50
2022-11-30T23:01:57.877Z,102778.69
2022-11-30T23:03:11.904Z,102764.16
2022-11-30T23:04:19.187Z,102772.84
2022-11-30T23:05:29.037Z,102776.16
2022-11-30T23:06:34.488Z,102777.56
2022-11-30T23:07:53.852Z,102773.69
2022-11-30T23:09:00.745Z,102768.72
2022-11-30T23:10:06.290Z,102774.69
2022-11-30T23:11:15.306Z,102776.28
2022-11-30T23:12:43.230Z,102768.88
2022-11-30T23:13:46.432Z,102767.69
2022-11-30T23:14:49.699Z,102767.41
2022-11-30T23:15:59.297Z,102764.91
2022-11-30T23:17:05.999Z,102766.56
2022-11-30T23:18:08.693Z,102776.38
2022-11-30T23:19:12.642Z,102773.41
2022-11-30T23:20:21.068Z,102777.19
2022-11-30T23:21:30.369Z,102770.94
2022-11-30T23:22:38.668Z,102768.53
2022-11-30T23:23:44.849Z,102764.66
2022-11-30T23:24:52.723Z,102768.13
2022-11-30T23:25:56.500Z,102778.38
2022-11-30T23:27:08.814Z,102776.63
2022-11-30T23:28:13.005Z,102777.03
2022-11-30T23:29:22.994Z,102774.81
2022-11-30T23:30:34.117Z,102771.81
2022-11-30T23:31:44.380Z,102771.28
2022-11-30T23:32:55.510Z,102777.56
2022-11-30T23:34:12.188Z,102768.81
2022-11-30T23:35:25.579Z,102765.38
2022-11-30T23:36:31.931Z,102764.66
2022-11-30T23:37:41.978Z,102769.34
2022-11-30T23:38:55.975Z,102766.66
2022-11-30T23:40:00.245Z,102772.28
2022-11-30T23:41:11.888Z,102772.75
2022-11-30T23:42:21.613Z,102764.91
2022-11-30T23:43:34.026Z,102772.28
2022-11-30T23:44:48.884Z,102771.75
2022-11-30T23:47:31.308Z,102768.72
2022-11-30T23:49:15.657Z,102763.91
2022-11-30T23:50:22.810Z,102760.47
2022-11-30T23:51:32.394Z,102763.81
2022-11-30T23:52:39.107Z,102760.94
2022-11-30T23:53:55.247Z,102767.56
2022-11-30T23:55:04.582Z,102761.75
2022-11-30T23:56:15.236Z,102757.50
2022-11-30T23:57:20.612Z,102759.72
2022-11-30T23:58:31.300Z,102761.56
2022-11-30T23:59:39.768Z,102768.28
